sensor_id;sensor_type;location;lat;lon;timestamp;pressure;altitude;pressure_sealevel;temperature;humidity
6433;BME280;3249;42.690;23.260;2022-08-24T00:02:19;94176.69;;;17.94;100.00
6433;BME280;3249;42.690;23.260;2022-08-24T00:04:45;94173.78;;;18.16;100.00
6433;BME280;3249;42.690;23.260;2022-08-24T00:07:12;94175.59;;;18.25;100.00
6433;BME280;3249;42.690;23.260;2022-08-24T00:09:38;94181.31;;;18.32;100.00
6433;BME280;3249;42.690;23.260;2022-08-24T00:12:04;94172.19;;;18.25;100.00
6433;BME280;3249;42.690;23.260;2022-08-24T00:14:30;94194.59;;;18.36;100.00
6433;BME280;3249;42.690;23.260;2022-08-24T00:16:56;94174.03;;;18.19;100.00
6433;BME280;3249;42.690;23.260;2022-08-24T00:19:22;94148.06;;;17.84;100.00
6433;BME280;3249;42.690;23.260;2022-08-24T00:21:48;94179.03;;;17.85;100.00
6433;BME280;3249;42.690;23.260;2022-08-24T00:24:14;94182.69;;;17.89;100.00
6433;BME280;3249;42.690;23.260;2022-08-24T00:26:39;94179.59;;;17.67;100.00
6433;BME280;3249;42.690;23.260;2022-08-24T00:29:05;94190.00;;;17.47;100.00
6433;BME280;3249;42.690;23.260;2022-08-24T00:31:30;94177.47;;;17.24;100.00
6433;BME280;3249;42.690;23.260;2022-08-24T00:33:56;94194.16;;;17.38;100.00
6433;BME280;3249;42.690;23.260;2022-08-24T00:36:22;94192.09;;;17.40;100.00
6433;BME280;3249;42.690;23.260;2022-08-24T00:38:49;94191.00;;;17.36;100.00
6433;BME280;3249;42.690;23.260;2022-08-24T00:41:15;94191.00;;;17.26;100.00
6433;BME280;3249;42.690;23.260;2022-08-24T00:43:52;94186.06;;;17.30;100.00
6433;BME280;3249;42.690;23.260;2022-08-24T00:46:26;94182.72;;;17.44;100.00
6433;BME280;3249;42.690;23.260;2022-08-24T00:49:00;94189.47;;;17.65;100.00
6433;BME280;3249;42.690;23.260;2022-08-24T00:51:42;94191.06;;;17.51;100.00
6433;BME280;3249;42.690;23.260;2022-08-24T00:54:14;94181.91;;;17.44;100.00
6433;BME280;3249;42.690;23.260;2022-08-24T00:56:45;94191.56;;;17.63;100.00
6433;BME280;3249;42.690;23.260;2022-08-24T00:59:28;94170.75;;;17.43;100.00
6433;BME280;3249;42.690;23.260;2022-08-24T01:01:55;94195.22;;;17.42;100.00
6433;BME280;3249;42.690;23.260;2022-08-24T01:04:29;94192.06;;;17.45;100.00
6433;BME280;3249;42.690;23.260;2022-08-24T01:06:58;94195.22;;;17.42;100.00
6433;BME280;3249;42.690;23.260;2022-08-24T01:09:23;94188.44;;;17.41;100.00
6433;BME280;3249;42.690;23.260;2022-08-24T01:11:49;94185.78;;;17.26;100.00
6433;BME280;3249;42.690;23.260;2022-08-24T01:14:16;94191.00;;;17.26;100.00
6433;BME280;3249;42.690;23.260;2022-08-24T01:16:43;94191.56;;;17.43;100.00
6433;BME280;3249;42.690;23.260;2022-08-24T01:19:40;94196.50;;;17.70;100.00
6433;BME280;3249;42.690;23.260;2022-08-24T01:24:36;94200.94;;;17.59;100.00
6433;BME280;3249;42.690;23.260;2022-08-24T01:27:02;94186.09;;;17.50;100.00
6433;BME280;3249;42.690;23.260;2022-08-24T01:29:28;94194.44;;;17.42;100.00
6433;BME280;3249;42.690;23.260;2022-08-24T01:31:56;94215.47;;;17.35;100.00
6433;BME280;3249;42.690;23.260;2022-08-24T01:34:22;94210.84;;;17.47;100.00
6433;BME280;3249;42.690;23.260;2022-08-24T01:36:50;94207.72;;;17.70;100.00
6433;BME280;3249;42.690;23.260;2022-08-24T01:39:23;94222.28;;;17.81;100.00
6433;BME280;3249;42.690;23.260;2022-08-24T01:41:49;94221.22;;;17.77;100.00
6433;BME280;3249;42.690;23.260;2022-08-24T01:44:17;94222.28;;;17.86;100.00
6433;BME280;3249;42.690;23.260;2022-08-24T01:46:45;94222.78;;;17.93;100.00
6433;BME280;3249;42.690;23.260;2022-08-24T01:49:11;94228.78;;;17.94;100.00
6433;BME280;3249;42.690;23.260;2022-08-24T01:51:37;94213.91;;;18.04;100.00
6433;BME280;3249;42.690;23.260;2022-08-24T01:54:03;94218.63;;;17.97;100.00
6433;BME280;3249;42.690;23.260;2022-08-24T01:56:30;94211.84;;;17.96;100.00
6433;BME280;3249;42.690;23.260;2022-08-24T01:58:57;94212.41;;;17.78;100.00
6433;BME280;3249;42.690;23.260;2022-08-24T02:01:24;94214.72;;;17.75;100.00
6433;BME280;3249;42.690;23.260;2022-08-24T02:03:51;94225.41;;;17.58;100.00
6433;BME280;3249;42.690;23.260;2022-08-24T02:06:16;94231.38;;;17.79;100.00
6433;BME280;3249;42.690;23.260;2022-08-24T02:08:42;94232.69;;;17.76;100.00
6433;BME280;3249;42.690;23.260;2022-08-24T02:11:08;94229.56;;;17.64;100.00
6433;BME280;3249;42.690;23.260;2022-08-24T02:13:35;94241.28;;;17.82;100.00
6433;BME280;3249;42.690;23.260;2022-08-24T02:16:02;94235.28;;;17.81;100.00
6433;BME280;3249;42.690;23.260;2022-08-24T02:18:27;94253.28;;;17.93;100.00
6433;BME280;3249;42.690;23.260;2022-08-24T02:20:53;94254.56;;;17.60;100.00
6433;BME280;3249;42.690;23.260;2022-08-24T02:23:19;94249.63;;;17.74;100.00
6433;BME280;3249;42.690;23.260;2022-08-24T02:25:45;94251.72;;;17.77;100.00
6433;BME280;3249;42.690;23.260;2022-08-24T02:28:12;94253.53;;;17.81;100.00
6433;BME280;3249;42.690;23.260;2022-08-24T02:30:39;94253.28;;;17.78;100.00
6433;BME280;3249;42.690;23.260;2022-08-24T02:33:05;94258.22;;;17.64;100.00
6433;BME280;3249;42.690;23.260;2022-08-24T02:35:32;94255.59;;;17.44;100.00
6433;BME280;3249;42.690;23.260;2022-08-24T02:37:58;94254.53;;;17.45;100.00
6433;BME280;3249;42.690;23.260;2022-08-24T02:40:24;94251.44;;;17.53;100.00
6433;BME280;3249;42.690;23.260;2022-08-24T02:42:50;94256.38;;;17.60;100.00
6433;BME280;3249;42.690;23.260;2022-08-24T02:45:15;94256.16;;;17.66;100.00
6433;BME280;3249;42.690;23.260;2022-08-24T02:47:41;94254.56;;;17.80;100.00
6433;BME280;3249;42.690;23.260;2022-08-24T02:50:09;94260.31;;;17.92;100.00
6433;BME280;3249;42.690;23.260;2022-08-24T02:52:36;94259.28;;;17.98;100.00
6433;BME280;3249;42.690;23.260;2022-08-24T02:55:04;94268.13;;;18.02;100.00
6433;BME280;3249;42.690;23.260;2022-08-24T02:57:30;94275.13;;;18.07;100.00
6433;BME280;3249;42.690;23.260;2022-08-24T02:59:56;94264.47;;;18.08;100.00
6433;BME280;3249;42.690;23.260;2022-08-24T03:02:21;94249.09;;;17.97;100.00
6433;BME280;3249;42.690;23.260;2022-08-24T03:04:47;94271.25;;;18.04;100.00
6433;BME280;3249;42.690;23.260;2022-08-24T03:07:12;94271.75;;;18.17;100.00
6433;BME280;3249;42.690;23.260;2022-08-24T03:09:38;94273.31;;;18.17;100.00
6433;BME280;3249;42.690;23.260;2022-08-24T03:12:03;94269.66;;;17.73;100.00
6433;BME280;3249;42.690;23.260;2022-08-24T03:14:29;94273.31;;;17.92;100.00
6433;BME280;3249;42.690;23.260;2022-08-24T03:16:54;94264.97;;;18.00;100.00
6433;BME280;3249;42.690;23.260;2022-08-24T03:19:19;94240.50;;;17.81;100.00
6433;BME280;3249;42.690;23.260;2022-08-24T03:21:46;94269.41;;;18.10;100.00
6433;BME280;3249;42.690;23.260;2022-08-24T03:24:12;94273.84;;;17.79;100.00
6433;BME280;3249;42.690;23.260;2022-08-24T03:26:37;94232.97;;;17.45;100.00
6433;BME280;3249;42.690;23.260;2022-08-24T03:29:04;94267.28;;;17.52;100.00
6433;BME280;3249;42.690;23.260;2022-08-24T03:31:29;94276.16;;;17.56;100.00
6433;BME280;3249;42.690;23.260;2022-08-24T03:33:55;94270.72;;;17.67;100.00
6433;BME280;3249;42.690;23.260;2022-08-24T03:36:20;94269.66;;;17.68;100.00
6433;BME280;3249;42.690;23.260;2022-08-24T03:38:46;94268.66;;;17.79;100.00
6433;BME280;3249;42.690;23.260;2022-08-24T03:41:14;94278.00;;;17.85;100.00
6433;BME280;3249;42.690;23.260;2022-08-24T03:43:40;94276.44;;;17.64;100.00
6433;BME280;3249;42.690;23.260;2022-08-24T03:46:21;94279.81;;;17.80;100.00
6433;BME280;3249;42.690;23.260;2022-08-24T03:48:48;94280.84;;;17.64;100.00
6433;BME280;3249;42.690;23.260;2022-08-24T03:51:16;94283.72;;;17.42;100.00
6433;BME280;3249;42.690;23.260;2022-08-24T03:53:43;94283.63;;;17.32;100.00
6433;BME280;3249;42.690;23.260;2022-08-24T03:56:09;94280.59;;;17.55;100.00
6433;BME280;3249;42.690;23.260;2022-08-24T03:58:36;94279.03;;;17.69;100.00
6433;BME280;3249;42.690;23.260;2022-08-24T04:01:02;94268.34;;;17.46;100.00
6433;BME280;3249;42.690;23.260;2022-08-24T04:03:28;94283.72;;;17.52;100.00
6433;BME280;3249;42.690;23.260;2022-08-24T04:05:54;94276.47;;;17.74;100.00
6433;BME280;3249;42.690;23.260;2022-08-24T04:08:19;94286.34;;;17.82;100.00
6433;BME280;3249;42.690;23.260;2022-08-24T04:10:45;94287.38;;;17.76;100.00
6433;BME280;3249;42.690;23.260;2022-08-24T04:13:11;94274.09;;;17.68;100.00
6433;BME280;3249;42.690;23.260;2022-08-24T04:15:41;94284.00;;;17.71;100.00
6433;BME280;3249;42.690;23.260;2022-08-24T04:18:07;94287.88;;;17.73;100.00
6433;BME280;3249;42.690;23.260;2022-08-24T04:20:40;94281.13;;;17.67;100.00
6433;BME280;3249;42.690;23.260;2022-08-24T04:23:11;94293.88;;;17.79;100.00
6433;BME280;3249;42.690;23.260;2022-08-24T04:25:45;94290.53;;;18.03;100.00
6433;BME280;3249;42.690;23.260;2022-08-24T04:28:14;94284.78;;;18.07;100.00
6433;BME280;3249;42.690;23.260;2022-08-24T04:30:41;94286.88;;;18.20;100.00
6433;BME280;3249;42.690;23.260;2022-08-24T04:33:08;94285.28;;;18.29;100.00
6433;BME280;3249;42.690;23.260;2022-08-24T04:35:39;94298.84;;;18.46;100.00
6433;BME280;3249;42.690;23.260;2022-08-24T04:38:06;94280.59;;;18.31;100.00
6433;BME280;3249;42.690;23.260;2022-08-24T04:40:31;94292.06;;;18.25;100.00
6433;BME280;3249;42.690;23.260;2022-08-24T04:42:57;94300.38;;;18.57;100.00
6433;BME280;3249;42.690;23.260;2022-08-24T04:45:23;94320.16;;;18.73;100.00
6433;BME280;3249;42.690;23.260;2022-08-24T04:47:49;94310.78;;;18.82;100.00
6433;BME280;3249;42.690;23.260;2022-08-24T04:50:14;94313.84;;;18.99;100.00
6433;BME280;3249;42.690;23.260;2022-08-24T04:52:40;94314.16;;;18.77;100.00
6433;BME280;3249;42.690;23.260;2022-08-24T04:55:07;94293.00;;;18.89;100.00
6433;BME280;3249;42.690;23.260;2022-08-24T04:57:33;94308.00;;;19.22;100.00
6433;BME280;3249;42.690;23.260;2022-08-24T04:59:59;94307.69;;;19.38;100.00
6433;BME280;3249;42.690;23.260;2022-08-24T05:02:25;94308.41;;;19.49;100.00
6433;BME280;3249;42.690;23.260;2022-08-24T05:04:50;94314.06;;;19.12;100.00
6433;BME280;3249;42.690;23.260;2022-08-24T05:07:16;94304.53;;;18.78;100.00
6433;BME280;3249;42.690;23.260;2022-08-24T05:09:43;94309.97;;;18.86;100.00
6433;BME280;3249;42.690;23.260;2022-08-24T05:12:08;94298.38;;;19.17;100.00
6433;BME280;3249;42.690;23.260;2022-08-24T05:14:34;94311.34;;;19.37;100.00
6433;BME280;3249;42.690;23.260;2022-08-24T05:17:00;94316.69;;;19.61;100.00
6433;BME280;3249;42.690;23.260;2022-08-24T05:19:25;94300.16;;;19.75;100.00
6433;BME280;3249;42.690;23.260;2022-08-24T05:21:51;94312.84;;;19.92;100.00
6433;BME280;3249;42.690;23.260;2022-08-24T05:24:16;94321.13;;;20.04;100.00
6433;BME280;3249;42.690;23.260;2022-08-24T05:26:43;94318.81;;;19.97;100.00
6433;BME280;3249;42.690;23.260;2022-08-24T05:29:09;94301.78;;;20.05;100.00
6433;BME280;3249;42.690;23.260;2022-08-24T05:31:35;94320.59;;;20.40;100.00
6433;BME280;3249;42.690;23.260;2022-08-24T05:34:01;94322.63;;;20.48;100.00
6433;BME280;3249;42.690;23.260;2022-08-24T05:36:30;94309.03;;;20.46;100.00
6433;BME280;3249;42.690;23.260;2022-08-24T05:38:57;94320.19;;;20.57;100.00
6433;BME280;3249;42.690;23.260;2022-08-24T05:41:25;94319.13;;;20.58;100.00
6433;BME280;3249;42.690;23.260;2022-08-24T05:43:51;94316.69;;;20.66;100.00
6433;BME280;3249;42.690;23.260;2022-08-24T05:46:17;94301.75;;;20.67;100.00
6433;BME280;3249;42.690;23.260;2022-08-24T05:48:43;94322.47;;;20.92;100.00
6433;BME280;3249;42.690;23.260;2022-08-24T05:51:10;94320.09;;;20.95;100.00
6433;BME280;3249;42.690;23.260;2022-08-24T05:53:36;94327.88;;;21.00;100.00
6433;BME280;3249;42.690;23.260;2022-08-24T05:56:04;94323.84;;;21.08;100.00
6433;BME280;3249;42.690;23.260;2022-08-24T05:58:30;94328.78;;;21.14;100.00
6433;BME280;3249;42.690;23.260;2022-08-24T06:00:56;94329.53;;;21.15;100.00
6433;BME280;3249;42.690;23.260;2022-08-24T06:03:21;94325.31;;;20.67;100.00
6433;BME280;3249;42.690;23.260;2022-08-24T06:05:46;94326.56;;;20.46;100.00
6433;BME280;3249;42.690;23.260;2022-08-24T06:08:13;94325.53;;;20.13;100.00
6433;BME280;3249;42.690;23.260;2022-08-24T06:10:43;94324.19;;;20.16;100.00
6433;BME280;3249;42.690;23.260;2022-08-24T06:13:10;94314.47;;;20.21;100.00
6433;BME280;3249;42.690;23.260;2022-08-24T06:15:37;94314.53;;;20.16;100.00
6433;BME280;3249;42.690;23.260;2022-08-24T06:18:04;94323.28;;;20.59;100.00
6433;BME280;3249;42.690;23.260;2022-08-24T06:20:30;94328.59;;;20.54;100.00
6433;BME280;3249;42.690;23.260;2022-08-24T06:22:56;94332.41;;;20.61;100.00
6433;BME280;3249;42.690;23.260;2022-08-24T06:25:21;94327.13;;;20.95;100.00
6433;BME280;3249;42.690;23.260;2022-08-24T06:28:05;94312.69;;;20.74;100.00
6433;BME280;3249;42.690;23.260;2022-08-24T06:30:31;94329.56;;;20.86;100.00
6433;BME280;3249;42.690;23.260;2022-08-24T06:33:00;94336.63;;;20.86;100.00
6433;BME280;3249;42.690;23.260;2022-08-24T06:35:26;94336.56;;;20.91;100.00
6433;BME280;3249;42.690;23.260;2022-08-24T06:37:52;94336.38;;;21.11;100.00
6433;BME280;3249;42.690;23.260;2022-08-24T06:40:17;94329.69;;;21.23;100.00
6433;BME280;3249;42.690;23.260;2022-08-24T06:42:46;94337.50;;;21.28;100.00
6433;BME280;3249;42.690;23.260;2022-08-24T06:45:12;94342.75;;;21.70;100.00
6433;BME280;3249;42.690;23.260;2022-08-24T06:47:38;94338.16;;;21.39;100.00
6433;BME280;3249;42.690;23.260;2022-08-24T06:50:05;94347.09;;;21.80;100.00
6433;BME280;3249;42.690;23.260;2022-08-24T06:52:31;94354.09;;;21.84;100.00
6433;BME280;3249;42.690;23.260;2022-08-24T06:54:58;94355.78;;;22.13;100.00
6433;BME280;3249;42.690;23.260;2022-08-24T06:57:23;94363.56;;;22.36;100.00
6433;BME280;3249;42.690;23.260;2022-08-24T06:59:49;94357.28;;;22.19;100.00
6433;BME280;3249;42.690;23.260;2022-08-24T07:02:14;94366.53;;;22.11;100.00
6433;BME280;3249;42.690;23.260;2022-08-24T07:04:43;94373.34;;;22.49;100.00
6433;BME280;3249;42.690;23.260;2022-08-24T07:07:08;94371.28;;;22.28;100.00
6433;BME280;3249;42.690;23.260;2022-08-24T07:09:34;94369.22;;;21.69;100.00
6433;BME280;3249;42.690;23.260;2022-08-24T07:11:59;94376.84;;;21.89;100.00
6433;BME280;3249;42.690;23.260;2022-08-24T07:14:25;94371.38;;;22.04;100.00
6433;BME280;3249;42.690;23.260;2022-08-24T07:16:51;94354.81;;;21.48;100.00
6433;BME280;3249;42.690;23.260;2022-08-24T07:19:16;94375.41;;;21.78;100.00
6433;BME280;3249;42.690;23.260;2022-08-24T07:21:41;94383.81;;;21.75;100.00
6433;BME280;3249;42.690;23.260;2022-08-24T07:24:07;94390.38;;;22.15;100.00
6433;BME280;3249;42.690;23.260;2022-08-24T07:26:33;94387.16;;;21.99;100.00
6433;BME280;3249;42.690;23.260;2022-08-24T07:29:04;94388.66;;;21.63;100.00
6433;BME280;3249;42.690;23.260;2022-08-24T07:31:35;94383.06;;;21.93;100.00
6433;BME280;3249;42.690;23.260;2022-08-24T07:34:02;94399.16;;;22.24;100.00
6433;BME280;3249;42.690;23.260;2022-08-24T07:36:28;94394.75;;;22.19;100.00
6433;BME280;3249;42.690;23.260;2022-08-24T07:38:53;94392.41;;;21.80;100.00
6433;BME280;3249;42.690;23.260;2022-08-24T07:41:21;94376.03;;;21.88;100.00
6433;BME280;3249;42.690;23.260;2022-08-24T07:43:47;94388.03;;;22.13;100.00
6433;BME280;3249;42.690;23.260;2022-08-24T07:46:13;94394.53;;;22.53;100.00
6433;BME280;3249;42.690;23.260;2022-08-24T07:48:39;94387.38;;;22.40;100.00
6433;BME280;3249;42.690;23.260;2022-08-24T07:51:08;94375.25;;;22.25;100.00
6433;BME280;3249;42.690;23.260;2022-08-24T07:53:35;94378.31;;;22.32;100.00
6433;BME280;3249;42.690;23.260;2022-08-24T07:56:01;94373.44;;;21.88;100.00
6433;BME280;3249;42.690;23.260;2022-08-24T07:58:27;94347.19;;;22.26;100.00
6433;BME280;3249;42.690;23.260;2022-08-24T08:00:52;94378.50;;;22.36;100.00
6433;BME280;3249;42.690;23.260;2022-08-24T08:03:18;94381.63;;;22.56;100.00
6433;BME280;3249;42.690;23.260;2022-08-24T08:05:43;94380.03;;;22.74;100.00
6433;BME280;3249;42.690;23.260;2022-08-24T08:08:09;94372.31;;;22.64;100.00
6433;BME280;3249;42.690;23.260;2022-08-24T08:10:36;94376.59;;;22.60;100.00
6433;BME280;3249;42.690;23.260;2022-08-24T08:13:03;94369.56;;;22.37;100.00
6433;BME280;3249;42.690;23.260;2022-08-24T08:15:28;94376.78;;;22.95;100.00
6433;BME280;3249;42.690;23.260;2022-08-24T08:17:54;94367.03;;;23.09;100.00
6433;BME280;3249;42.690;23.260;2022-08-24T08:20:19;94370.00;;;23.35;100.00
6433;BME280;3249;42.690;23.260;2022-08-24T08:22:45;94370.22;;;23.25;100.00
6433;BME280;3249;42.690;23.260;2022-08-24T08:25:29;94374.06;;;23.14;100.00
6433;BME280;3249;42.690;23.260;2022-08-24T08:27:55;94365.91;;;23.15;100.00
6433;BME280;3249;42.690;23.260;2022-08-24T08:30:21;94361.84;;;23.23;100.00
6433;BME280;3249;42.690;23.260;2022-08-24T08:32:46;94372.91;;;23.47;100.00
6433;BME280;3249;42.690;23.260;2022-08-24T08:35:12;94371.91;;;23.16;100.00
6433;BME280;3249;42.690;23.260;2022-08-24T08:37:37;94355.56;;;23.19;100.00
6433;BME280;3249;42.690;23.260;2022-08-24T08:40:06;94373.09;;;23.50;100.00
6433;BME280;3249;42.690;23.260;2022-08-24T08:42:41;94366.13;;;23.32;100.00
6433;BME280;3249;42.690;23.260;2022-08-24T08:51:03;94369.13;;;24.15;100.00
6433;BME280;3249;42.690;23.260;2022-08-24T08:59:04;94380.25;;;24.12;100.00
6433;BME280;3249;42.690;23.260;2022-08-24T09:02:00;94371.06;;;24.23;100.00
6433;BME280;3249;42.690;23.260;2022-08-24T14:36:13;94270.09;;;24.19;100.00
6433;BME280;3249;42.690;23.260;2022-08-24T14:41:23;94293.53;;;24.82;100.00
6433;BME280;3249;42.690;23.260;2022-08-24T14:44:00;94287.16;;;24.74;100.00
6433;BME280;3249;42.690;23.260;2022-08-24T14:49:28;94297.22;;;24.72;100.00
6433;BME280;3249;42.690;23.260;2022-08-24T14:52:22;94299.25;;;24.75;100.00
6433;BME280;3249;42.690;23.260;2022-08-24T14:55:09;94307.03;;;24.36;100.00
6433;BME280;3249;42.690;23.260;2022-08-24T15:02:54;94272.44;;;23.85;100.00
6433;BME280;3249;42.690;23.260;2022-08-24T15:05:42;94292.38;;;24.00;100.00
6433;BME280;3249;42.690;23.260;2022-08-24T15:08:30;94293.13;;;24.14;100.00
6433;BME280;3249;42.690;23.260;2022-08-24T15:11:05;94284.56;;;24.08;100.00
6433;BME280;3249;42.690;23.260;2022-08-24T15:13:53;94280.25;;;23.90;100.00
6433;BME280;3249;42.690;23.260;2022-08-24T15:19:08;94291.34;;;23.52;100.00
6433;BME280;3249;42.690;23.260;2022-08-24T15:29:59;94294.69;;;23.30;100.00
6433;BME280;3249;42.690;23.260;2022-08-24T15:35:28;94297.22;;;23.22;100.00
6433;BME280;3249;42.690;23.260;2022-08-24T15:37:54;94299.75;;;23.27;100.00
6433;BME280;3249;42.690;23.260;2022-08-24T15:40:24;94294.19;;;23.01;100.00
6433;BME280;3249;42.690;23.260;2022-08-24T15:42:54;94297.00;;;23.05;100.00
6433;BME280;3249;42.690;23.260;2022-08-24T15:45:20;94305.38;;;22.93;100.00
6433;BME280;3249;42.690;23.260;2022-08-24T15:47:46;94299.44;;;23.15;100.00
6433;BME280;3249;42.690;23.260;2022-08-24T15:50:24;94303.44;;;23.12;100.00
6433;BME280;3249;42.690;23.260;2022-08-24T15:52:54;94298.88;;;23.04;100.00
6433;BME280;3249;42.690;23.260;2022-08-24T15:55:40;94298.75;;;23.09;100.00
6433;BME280;3249;42.690;23.260;2022-08-24T16:00:44;94306.25;;;23.16;100.00
6433;BME280;3249;42.690;23.260;2022-08-24T16:11:48;94298.34;;;23.56;100.00
6433;BME280;3249;42.690;23.260;2022-08-24T16:19:56;94316.13;;;23.73;100.00
6433;BME280;3249;42.690;23.260;2022-08-24T16:22:50;94325.47;;;23.65;100.00
6433;BME280;3249;42.690;23.260;2022-08-24T16:25:22;94316.94;;;23.46;100.00
6433;BME280;3249;42.690;23.260;2022-08-24T16:30:39;94313.97;;;23.39;100.00
6433;BME280;3249;42.690;23.260;2022-08-24T16:33:33;94309.59;;;23.21;100.00
6433;BME280;3249;42.690;23.260;2022-08-24T16:35:51;94320.75;;;23.13;100.00
6433;BME280;3249;42.690;23.260;2022-08-24T16:38:16;94314.22;;;22.97;100.00
6433;BME280;3249;42.690;23.260;2022-08-24T16:40:42;94319.00;;;23.09;100.00
6433;BME280;3249;42.690;23.260;2022-08-24T16:43:08;94313.25;;;22.93;100.00
6433;BME280;3249;42.690;23.260;2022-08-24T16:45:33;94305.56;;;22.97;100.00
6433;BME280;3249;42.690;23.260;2022-08-24T16:47:59;94309.84;;;22.79;100.00
6433;BME280;3249;42.690;23.260;2022-08-24T16:50:24;94317.47;;;22.62;100.00
6433;BME280;3249;42.690;23.260;2022-08-24T16:52:49;94314.09;;;22.62;100.00
6433;BME280;3249;42.690;23.260;2022-08-24T16:55:15;94305.13;;;22.49;100.00
6433;BME280;3249;42.690;23.260;2022-08-24T16:57:41;94307.31;;;22.42;100.00
6433;BME280;3249;42.690;23.260;2022-08-24T17:00:10;94312.72;;;22.32;100.00
6433;BME280;3249;42.690;23.260;2022-08-24T17:02:38;94310.25;;;22.22;100.00
6433;BME280;3249;42.690;23.260;2022-08-24T17:05:03;94317.38;;;22.22;100.00
6433;BME280;3249;42.690;23.260;2022-08-24T17:07:30;94332.44;;;22.11;100.00
6433;BME280;3249;42.690;23.260;2022-08-24T17:09:56;94333.81;;;22.08;100.00
6433;BME280;3249;42.690;23.260;2022-08-24T17:12:22;94319.88;;;21.94;100.00
6433;BME280;3249;42.690;23.260;2022-08-24T17:14:48;94341.31;;;22.15;100.00
6433;BME280;3249;42.690;23.260;2022-08-24T17:17:16;94325.75;;;22.05;100.00
6433;BME280;3249;42.690;23.260;2022-08-24T17:19:42;94308.69;;;21.89;100.00
6433;BME280;3249;42.690;23.260;2022-08-24T17:22:07;94339.84;;;22.09;100.00
6433;BME280;3249;42.690;23.260;2022-08-24T17:24:34;94342.88;;;22.16;100.00
6433;BME280;3249;42.690;23.260;2022-08-24T17:27:00;94342.81;;;22.02;100.00
6433;BME280;3249;42.690;23.260;2022-08-24T17:29:27;94353.22;;;22.08;100.00
6433;BME280;3249;42.690;23.260;2022-08-24T17:31:52;94354.41;;;22.15;100.00
6433;BME280;3249;42.690;23.260;2022-08-24T17:34:19;94356.34;;;22.28;100.00
6433;BME280;3249;42.690;23.260;2022-08-24T17:36:50;94356.34;;;22.47;100.00
6433;BME280;3249;42.690;23.260;2022-08-24T17:39:17;94359.75;;;22.47;100.00
6433;BME280;3249;42.690;23.260;2022-08-24T17:41:43;94347.72;;;22.41;100.00
6433;BME280;3249;42.690;23.260;2022-08-24T17:44:11;94379.38;;;22.50;100.00
6433;BME280;3249;42.690;23.260;2022-08-24T17:46:38;94374.09;;;22.31;100.00
6433;BME280;3249;42.690;23.260;2022-08-24T17:49:06;94367.25;;;21.98;100.00
6433;BME280;3249;42.690;23.260;2022-08-24T17:51:32;94373.66;;;21.92;100.00
6433;BME280;3249;42.690;23.260;2022-08-24T17:53:58;94370.69;;;21.80;100.00
6433;BME280;3249;42.690;23.260;2022-08-24T17:56:25;94369.53;;;21.86;100.00
6433;BME280;3249;42.690;23.260;2022-08-24T17:58:51;94373.56;;;21.78;100.00
6433;BME280;3249;42.690;23.260;2022-08-24T18:01:35;94382.19;;;21.79;100.00
6433;BME280;3249;42.690;23.260;2022-08-24T18:04:00;94384.50;;;21.62;100.00
6433;BME280;3249;42.690;23.260;2022-08-24T18:06:27;94378.91;;;21.68;100.00
6433;BME280;3249;42.690;23.260;2022-08-24T18:08:53;94388.63;;;21.68;100.00
6433;BME280;3249;42.690;23.260;2022-08-24T18:11:21;94374.44;;;21.50;100.00
6433;BME280;3249;42.690;23.260;2022-08-24T18:13:47;94367.53;;;21.36;100.00
6433;BME280;3249;42.690;23.260;2022-08-24T18:16:16;94391.28;;;21.63;100.00
6433;BME280;3249;42.690;23.260;2022-08-24T18:18:45;94397.88;;;21.60;100.00
6433;BME280;3249;42.690;23.260;2022-08-24T18:21:11;94394.25;;;21.56;100.00
6433;BME280;3249;42.690;23.260;2022-08-24T18:23:36;94379.09;;;21.53;100.00
6433;BME280;3249;42.690;23.260;2022-08-24T18:26:02;94380.16;;;21.52;100.00
6433;BME280;3249;42.690;23.260;2022-08-24T18:28:27;94393.25;;;21.52;100.00
6433;BME280;3249;42.690;23.260;2022-08-24T18:30:53;94400.56;;;21.55;100.00
6433;BME280;3249;42.690;23.260;2022-08-24T18:33:18;94403.25;;;21.50;100.00
6433;BME280;3249;42.690;23.260;2022-08-24T18:35:43;94393.50;;;21.32;100.00
6433;BME280;3249;42.690;23.260;2022-08-24T18:38:10;94403.59;;;21.44;100.00
6433;BME280;3249;42.690;23.260;2022-08-24T18:40:36;94393.31;;;21.47;100.00
6433;BME280;3249;42.690;23.260;2022-08-24T18:43:02;94400.78;;;21.59;100.00
6433;BME280;3249;42.690;23.260;2022-08-24T18:45:29;94413.84;;;21.64;100.00
6433;BME280;3249;42.690;23.260;2022-08-24T18:47:55;94405.00;;;21.55;100.00
6433;BME280;3249;42.690;23.260;2022-08-24T18:50:21;94402.91;;;21.57;100.00
6433;BME280;3249;42.690;23.260;2022-08-24T18:52:47;94410.63;;;21.72;100.00
6433;BME280;3249;42.690;23.260;2022-08-24T18:55:12;94416.28;;;21.79;100.00
6433;BME280;3249;42.690;23.260;2022-08-24T18:57:38;94415.94;;;21.85;100.00
6433;BME280;3249;42.690;23.260;2022-08-24T19:00:05;94430.16;;;21.79;100.00
6433;BME280;3249;42.690;23.260;2022-08-24T19:02:31;94414.84;;;21.68;100.00
6433;BME280;3249;42.690;23.260;2022-08-24T19:05:10;94437.41;;;21.64;100.00
6433;BME280;3249;42.690;23.260;2022-08-24T19:07:42;94442.59;;;21.45;100.00
6433;BME280;3249;42.690;23.260;2022-08-24T19:10:11;94435.44;;;21.51;100.00
6433;BME280;3249;42.690;23.260;2022-08-24T19:12:42;94440.75;;;21.46;100.00
6433;BME280;3249;42.690;23.260;2022-08-24T19:15:09;94437.25;;;21.32;100.00
6433;BME280;3249;42.690;23.260;2022-08-24T19:17:35;94428.25;;;21.14;100.00
6433;BME280;3249;42.690;23.260;2022-08-24T19:20:00;94415.38;;;20.89;100.00
6433;BME280;3249;42.690;23.260;2022-08-24T19:22:26;94439.09;;;21.03;100.00
6433;BME280;3249;42.690;23.260;2022-08-24T19:24:52;94443.56;;;21.02;100.00
6433;BME280;3249;42.690;23.260;2022-08-24T19:27:17;94443.31;;;20.99;100.00
6433;BME280;3249;42.690;23.260;2022-08-24T19:29:43;94446.22;;;20.97;100.00
6433;BME280;3249;42.690;23.260;2022-08-24T19:32:11;94444.66;;;20.96;100.00
6433;BME280;3249;42.690;23.260;2022-08-24T19:34:39;94449.88;;;20.96;100.00